sensor_id;sensor_type;location;lat;lon;timestamp;pressure;altitude;pressure_sealevel;temperature;humidity
35151;BME280;55720;51.972;4.624;2023-03-14T00:01:38;98853.22;;;10.29;100.00
35151;BME280;55720;51.972;4.624;2023-03-14T00:04:04;98836.78;;;10.29;100.00
35151;BME280;55720;51.972;4.624;2023-03-14T00:06:30;98843.41;;;10.28;100.00
35151;BME280;55720;51.972;4.624;2023-03-14T00:08:56;98843.41;;;10.28;100.00
35151;BME280;55720;51.972;4.624;2023-03-14T00:11:22;98844.22;;;10.29;100.00
35151;BME280;55720;51.972;4.624;2023-03-14T00:13:51;98833.25;;;10.29;100.00
35151;BME280;55720;51.972;4.624;2023-03-14T00:16:17;98826.91;;;10.21;100.00
35151;BME280;55720;51.972;4.624;2023-03-14T00:18:43;98826.50;;;10.19;100.00
35151;BME280;55720;51.972;4.624;2023-03-14T00:21:09;98831.56;;;10.17;100.00
35151;BME280;55720;51.972;4.624;2023-03-14T00:23:37;98830.69;;;10.10;100.00
35151;BME280;55720;51.972;4.624;2023-03-14T00:26:13;98830.63;;;10.06;100.00
35151;BME280;55720;51.972;4.624;2023-03-14T00:28:40;98813.31;;;9.95;100.00
35151;BME280;55720;51.972;4.624;2023-03-14T00:31:07;98792.88;;;9.89;100.00
35151;BME280;55720;51.972;4.624;2023-03-14T00:33:33;98794.44;;;9.86;100.00
35151;BME280;55720;51.972;4.624;2023-03-14T00:36:04;98793.22;;;9.84;100.00
35151;BME280;55720;51.972;4.624;2023-03-14T00:38:32;98785.00;;;9.84;100.00
35151;BME280;55720;51.972;4.624;2023-03-14T00:40:58;98758.25;;;9.70;100.00
35151;BME280;55720;51.972;4.624;2023-03-14T00:43:24;98760.56;;;9.65;100.00
35151;BME280;55720;51.972;4.624;2023-03-14T00:45:52;98733.13;;;9.61;100.00
35151;BME280;55720;51.972;4.624;2023-03-14T00:48:19;98720.97;;;9.62;100.00
35151;BME280;55720;51.972;4.624;2023-03-14T00:50:45;98725.31;;;9.63;100.00
35151;BME280;55720;51.972;4.624;2023-03-14T00:53:10;98726.50;;;9.66;100.00
35151;BME280;55720;51.972;4.624;2023-03-14T00:55:37;98727.31;;;9.70;100.00
35151;BME280;55720;51.972;4.624;2023-03-14T00:58:02;98734.38;;;9.71;100.00
35151;BME280;55720;51.972;4.624;2023-03-14T01:00:28;98730.06;;;9.70;100.00
35151;BME280;55720;51.972;4.624;2023-03-14T01:02:53;98727.28;;;9.66;100.00
35151;BME280;55720;51.972;4.624;2023-03-14T01:05:18;98707.28;;;9.62;100.00
35151;BME280;55720;51.972;4.624;2023-03-14T01:07:44;98691.19;;;9.57;100.00
35151;BME280;55720;51.972;4.624;2023-03-14T01:10:10;98673.56;;;9.55;100.00
35151;BME280;55720;51.972;4.624;2023-03-14T01:12:35;98675.06;;;9.49;100.00
35151;BME280;55720;51.972;4.624;2023-03-14T01:15:01;98653.91;;;9.46;100.00
35151;BME280;55720;51.972;4.624;2023-03-14T01:17:26;98642.97;;;9.46;100.00
35151;BME280;55720;51.972;4.624;2023-03-14T01:19:52;98625.75;;;9.49;100.00
35151;BME280;55720;51.972;4.624;2023-03-14T01:22:17;98625.72;;;9.45;100.00
35151;BME280;55720;51.972;4.624;2023-03-14T01:24:42;98604.59;;;9.42;100.00
35151;BME280;55720;51.972;4.624;2023-03-14T01:27:08;98606.53;;;9.42;100.00
35151;BME280;55720;51.972;4.624;2023-03-14T01:29:33;98611.25;;;9.45;100.00
35151;BME280;55720;51.972;4.624;2023-03-14T01:31:58;98608.94;;;9.47;100.00
35151;BME280;55720;51.972;4.624;2023-03-14T01:34:24;98592.88;;;9.45;100.00
35151;BME280;55720;51.972;4.624;2023-03-14T01:36:50;98603.44;;;9.47;100.00
35151;BME280;55720;51.972;4.624;2023-03-14T01:39:15;98590.13;;;9.45;100.00
35151;BME280;55720;51.972;4.624;2023-03-14T01:41:41;98604.25;;;9.47;100.00
35151;BME280;55720;51.972;4.624;2023-03-14T01:44:10;98621.06;;;9.49;100.00
35151;BME280;55720;51.972;4.624;2023-03-14T01:46:41;98607.38;;;9.49;100.00
35151;BME280;55720;51.972;4.624;2023-03-14T01:56:48;98635.19;;;9.51;100.00
35151;BME280;55720;51.972;4.624;2023-03-14T01:59:15;98630.09;;;9.53;100.00
35151;BME280;55720;51.972;4.624;2023-03-14T02:01:43;98632.84;;;9.53;100.00
35151;BME280;55720;51.972;4.624;2023-03-14T02:04:09;98639.13;;;9.54;100.00
35151;BME280;55720;51.972;4.624;2023-03-14T02:06:42;98633.63;;;9.50;100.00
35151;BME280;55720;51.972;4.624;2023-03-14T02:09:09;98638.63;;;9.45;100.00
35151;BME280;55720;51.972;4.624;2023-03-14T02:11:35;98625.69;;;9.42;100.00
35151;BME280;55720;51.972;4.624;2023-03-14T02:14:03;98629.19;;;9.38;100.00
35151;BME280;55720;51.972;4.624;2023-03-14T02:16:30;98633.50;;;9.36;100.00
35151;BME280;55720;51.972;4.624;2023-03-14T02:18:55;98612.34;;;9.33;100.00
35151;BME280;55720;51.972;4.624;2023-03-14T02:21:38;98625.59;;;9.31;100.00
35151;BME280;55720;51.972;4.624;2023-03-14T02:24:35;98619.34;;;9.30;100.00
35151;BME280;55720;51.972;4.624;2023-03-14T02:27:09;98616.22;;;9.28;100.00
35151;BME280;55720;51.972;4.624;2023-03-14T02:29:39;98602.09;;;9.26;100.00
35151;BME280;55720;51.972;4.624;2023-03-14T02:32:06;98609.13;;;9.24;100.00
35151;BME280;55720;51.972;4.624;2023-03-14T02:34:32;98597.38;;;9.23;100.00
35151;BME280;55720;51.972;4.624;2023-03-14T02:36:58;98573.47;;;9.17;100.00
35151;BME280;55720;51.972;4.624;2023-03-14T02:39:31;98554.25;;;9.13;100.00
35151;BME280;55720;51.972;4.624;2023-03-14T02:42:00;98542.88;;;9.08;100.00
35151;BME280;55720;51.972;4.624;2023-03-14T02:44:25;98519.78;;;9.05;100.00
35151;BME280;55720;51.972;4.624;2023-03-14T02:46:51;98508.81;;;9.05;100.00
35151;BME280;55720;51.972;4.624;2023-03-14T02:49:36;98489.31;;;9.07;100.00
35151;BME280;55720;51.972;4.624;2023-03-14T02:52:02;98479.94;;;9.08;100.00
35151;BME280;55720;51.972;4.624;2023-03-14T02:54:27;98460.31;;;9.02;100.00
35151;BME280;55720;51.972;4.624;2023-03-14T02:56:53;98457.53;;;8.95;100.00
35151;BME280;55720;51.972;4.624;2023-03-14T02:59:18;98441.06;;;8.88;100.00
35151;BME280;55720;51.972;4.624;2023-03-14T03:01:44;98432.84;;;8.88;100.00
35151;BME280;55720;51.972;4.624;2023-03-14T03:04:09;98416.81;;;8.90;100.00
35151;BME280;55720;51.972;4.624;2023-03-14T03:06:34;98405.16;;;8.97;100.00
35151;BME280;55720;51.972;4.624;2023-03-14T03:09:00;98404.41;;;9.00;100.00
35151;BME280;55720;51.972;4.624;2023-03-14T03:11:25;98392.72;;;9.06;100.00
35151;BME280;55720;51.972;4.624;2023-03-14T03:13:51;98401.72;;;9.10;100.00
35151;BME280;55720;51.972;4.624;2023-03-14T03:16:16;98408.34;;;9.09;100.00
35151;BME280;55720;51.972;4.624;2023-03-14T03:18:42;98414.25;;;9.11;100.00
35151;BME280;55720;51.972;4.624;2023-03-14T03:21:07;98408.81;;;9.15;100.00
35151;BME280;55720;51.972;4.624;2023-03-14T03:23:34;98427.56;;;9.16;100.00
35151;BME280;55720;51.972;4.624;2023-03-14T03:26:00;98427.19;;;9.14;100.00
35151;BME280;55720;51.972;4.624;2023-03-14T03:28:25;98433.03;;;9.16;100.00
35151;BME280;55720;51.972;4.624;2023-03-14T03:30:51;98430.72;;;9.18;100.00
35151;BME280;55720;51.972;4.624;2023-03-14T03:33:16;98438.53;;;9.20;100.00
35151;BME280;55720;51.972;4.624;2023-03-14T03:35:45;98442.50;;;9.22;100.00
35151;BME280;55720;51.972;4.624;2023-03-14T03:38:11;98449.13;;;9.21;100.00
35151;BME280;55720;51.972;4.624;2023-03-14T03:40:37;98447.53;;;9.17;100.00
35151;BME280;55720;51.972;4.624;2023-03-14T03:43:02;98455.75;;;9.20;100.00
35151;BME280;55720;51.972;4.624;2023-03-14T03:45:29;98461.22;;;9.17;100.00
35151;BME280;55720;51.972;4.624;2023-03-14T03:47:54;98456.91;;;9.16;100.00
35151;BME280;55720;51.972;4.624;2023-03-14T03:50:20;98463.59;;;9.18;100.00
35151;BME280;55720;51.972;4.624;2023-03-14T03:52:45;98463.97;;;9.20;100.00
35151;BME280;55720;51.972;4.624;2023-03-14T03:55:10;98463.59;;;9.22;100.00
35151;BME280;55720;51.972;4.624;2023-03-14T03:57:36;98464.78;;;9.24;100.00
35151;BME280;55720;51.972;4.624;2023-03-14T04:00:03;98478.88;;;9.26;100.00
35151;BME280;55720;51.972;4.624;2023-03-14T04:02:30;98470.63;;;9.23;100.00
35151;BME280;55720;51.972;4.624;2023-03-14T04:04:55;98487.09;;;9.26;100.00
35151;BME280;55720;51.972;4.624;2023-03-14T04:07:20;98490.63;;;9.27;100.00
35151;BME280;55720;51.972;4.624;2023-03-14T04:09:46;98492.97;;;9.28;100.00
35151;BME280;55720;51.972;4.624;2023-03-14T04:12:11;98489.44;;;9.28;100.00
35151;BME280;55720;51.972;4.624;2023-03-14T04:14:37;98483.19;;;9.27;100.00
35151;BME280;55720;51.972;4.624;2023-03-14T04:17:03;98479.28;;;9.28;100.00
35151;BME280;55720;51.972;4.624;2023-03-14T04:19:28;98478.88;;;9.26;100.00
35151;BME280;55720;51.972;4.624;2023-03-14T04:21:53;98472.19;;;9.20;100.00
35151;BME280;55720;51.972;4.624;2023-03-14T04:24:19;98455.72;;;9.13;100.00
35151;BME280;55720;51.972;4.624;2023-03-14T04:26:44;98438.84;;;9.04;100.00
35151;BME280;55720;51.972;4.624;2023-03-14T04:29:10;98400.09;;;8.99;100.00
35151;BME280;55720;51.972;4.624;2023-03-14T04:31:35;98369.53;;;8.89;100.00
35151;BME280;55720;51.972;4.624;2023-03-14T04:34:00;98315.53;;;8.83;100.00
35151;BME280;55720;51.972;4.624;2023-03-14T04:36:26;98255.72;;;8.78;100.00
35151;BME280;55720;51.972;4.624;2023-03-14T04:38:51;98186.09;;;8.72;100.00
35151;BME280;55720;51.972;4.624;2023-03-14T04:41:17;98104.03;;;8.68;100.00
35151;BME280;55720;51.972;4.624;2023-03-14T04:43:42;98011.81;;;8.65;100.00
35151;BME280;55720;51.972;4.624;2023-03-14T04:46:07;97895.78;;;8.63;100.00
35151;BME280;55720;51.972;4.624;2023-03-14T04:48:33;97797.69;;;8.58;100.00
35151;BME280;55720;51.972;4.624;2023-03-14T04:50:58;97704.72;;;8.58;100.00
35151;BME280;55720;51.972;4.624;2023-03-14T04:53:24;97625.06;;;8.56;100.00
35151;BME280;55720;51.972;4.624;2023-03-14T04:55:54;97562.53;;;8.54;100.00
35151;BME280;55720;51.972;4.624;2023-03-14T04:58:21;97522.75;;;8.50;100.00
35151;BME280;55720;51.972;4.624;2023-03-14T05:00:47;97457.13;;;8.50;100.00
35151;BME280;55720;51.972;4.624;2023-03-14T05:03:17;97413.78;;;8.48;100.00
35151;BME280;55720;51.972;4.624;2023-03-14T05:05:43;97273.56;;;8.48;100.00
35151;BME280;55720;51.972;4.624;2023-03-14T05:08:09;97325.13;;;8.49;100.00
35151;BME280;55720;51.972;4.624;2023-03-14T05:10:34;97338.78;;;8.49;100.00
35151;BME280;55720;51.972;4.624;2023-03-14T05:13:00;97474.31;;;8.47;100.00
35151;BME280;55720;51.972;4.624;2023-03-14T05:15:25;97500.91;;;8.46;100.00
35151;BME280;55720;51.972;4.624;2023-03-14T05:17:51;97541.91;;;8.43;100.00
35151;BME280;55720;51.972;4.624;2023-03-14T05:20:16;97569.28;;;8.39;100.00
35151;BME280;55720;51.972;4.624;2023-03-14T05:22:42;97600.91;;;8.36;100.00
35151;BME280;55720;51.972;4.624;2023-03-14T05:25:08;97652.84;;;8.36;100.00
35151;BME280;55720;51.972;4.624;2023-03-14T05:27:34;97721.59;;;8.35;100.00
35151;BME280;55720;51.972;4.624;2023-03-14T05:30:01;97793.81;;;8.34;100.00
35151;BME280;55720;51.972;4.624;2023-03-14T05:32:26;97873.88;;;8.34;100.00
35151;BME280;55720;51.972;4.624;2023-03-14T05:34:52;97970.72;;;8.33;100.00
35151;BME280;55720;51.972;4.624;2023-03-14T05:37:17;98043.75;;;8.33;100.00
35151;BME280;55720;51.972;4.624;2023-03-14T05:39:43;98146.09;;;8.35;100.00
35151;BME280;55720;51.972;4.624;2023-03-14T05:42:08;98267.16;;;8.36;100.00
35151;BME280;55720;51.972;4.624;2023-03-14T05:44:34;98317.44;;;8.24;100.00
35151;BME280;55720;51.972;4.624;2023-03-14T05:46:59;98366.09;;;8.08;100.00
35151;BME280;55720;51.972;4.624;2023-03-14T05:49:24;98423.59;;;7.85;100.00
35151;BME280;55720;51.972;4.624;2023-03-14T05:51:51;98476.03;;;7.65;100.00
35151;BME280;55720;51.972;4.624;2023-03-14T05:54:16;98509.31;;;7.44;100.00
35151;BME280;55720;51.972;4.624;2023-03-14T05:56:41;98530.44;;;7.24;100.00
35151;BME280;55720;51.972;4.624;2023-03-14T05:59:07;98552.88;;;7.14;100.00
35151;BME280;55720;51.972;4.624;2023-03-14T06:01:34;98560.91;;;7.04;100.00
35151;BME280;55720;51.972;4.624;2023-03-14T06:03:59;98577.22;;;7.00;100.00
35151;BME280;55720;51.972;4.624;2023-03-14T06:06:25;98590.44;;;6.98;100.00
35151;BME280;55720;51.972;4.624;2023-03-14T06:08:50;98601.19;;;6.91;100.00
35151;BME280;55720;51.972;4.624;2023-03-14T06:11:16;98599.63;;;6.90;100.00
35151;BME280;55720;51.972;4.624;2023-03-14T06:13:41;98608.63;;;6.90;100.00
35151;BME280;55720;51.972;4.624;2023-03-14T06:16:07;98634.66;;;6.88;100.00
35151;BME280;55720;51.972;4.624;2023-03-14T06:18:32;98633.09;;;6.87;100.00
35151;BME280;55720;51.972;4.624;2023-03-14T06:20:57;98650.22;;;6.87;100.00
35151;BME280;55720;51.972;4.624;2023-03-14T06:23:23;98652.19;;;6.87;100.00
35151;BME280;55720;51.972;4.624;2023-03-14T06:25:49;98657.59;;;6.83;100.00
35151;BME280;55720;51.972;4.624;2023-03-14T06:28:15;98615.88;;;6.83;100.00
35151;BME280;55720;51.972;4.624;2023-03-14T06:30:40;98605.69;;;6.80;100.00
35151;BME280;55720;51.972;4.624;2023-03-14T06:33:05;98639.97;;;6.81;100.00
35151;BME280;55720;51.972;4.624;2023-03-14T06:35:31;98671.56;;;6.82;100.00
35151;BME280;55720;51.972;4.624;2023-03-14T06:37:56;98597.13;;;6.81;100.00
35151;BME280;55720;51.972;4.624;2023-03-14T06:40:22;98705.88;;;6.83;100.00
35151;BME280;55720;51.972;4.624;2023-03-14T06:42:47;98755.78;;;6.83;100.00
35151;BME280;55720;51.972;4.624;2023-03-14T06:45:13;98793.50;;;6.81;100.00
35151;BME280;55720;51.972;4.624;2023-03-14T06:47:39;98827.59;;;6.72;100.00
35151;BME280;55720;51.972;4.624;2023-03-14T06:50:05;98830.44;;;6.60;100.00
35151;BME280;55720;51.972;4.624;2023-03-14T06:52:31;98908.53;;;6.52;100.00
35151;BME280;55720;51.972;4.624;2023-03-14T06:54:56;98960.25;;;6.49;100.00
35151;BME280;55720;51.972;4.624;2023-03-14T06:57:22;98978.81;;;6.43;100.00
35151;BME280;55720;51.972;4.624;2023-03-14T06:59:47;99007.53;;;6.40;100.00
35151;BME280;55720;51.972;4.624;2023-03-14T07:02:13;99033.31;;;6.43;100.00
35151;BME280;55720;51.972;4.624;2023-03-14T07:04:39;99071.94;;;6.45;100.00
35151;BME280;55720;51.972;4.624;2023-03-14T07:07:04;99099.38;;;6.52;100.00
35151;BME280;55720;51.972;4.624;2023-03-14T07:09:30;99114.50;;;6.50;100.00
35151;BME280;55720;51.972;4.624;2023-03-14T07:11:56;99135.84;;;6.48;100.00
35151;BME280;55720;51.972;4.624;2023-03-14T07:14:21;99170.28;;;6.52;100.00
35151;BME280;55720;51.972;4.624;2023-03-14T07:16:47;99184.28;;;6.51;100.00
35151;BME280;55720;51.972;4.624;2023-03-14T07:19:12;99200.16;;;6.49;100.00
35151;BME280;55720;51.972;4.624;2023-03-14T07:21:37;99227.19;;;6.54;100.00
35151;BME280;55720;51.972;4.624;2023-03-14T07:24:04;99236.63;;;6.56;100.00
35151;BME280;55720;51.972;4.624;2023-03-14T07:26:30;99256.81;;;6.55;100.00
35151;BME280;55720;51.972;4.624;2023-03-14T07:28:55;99267.06;;;6.58;100.00
35151;BME280;55720;51.972;4.624;2023-03-14T07:31:21;99282.06;;;6.64;100.00
35151;BME280;55720;51.972;4.624;2023-03-14T07:33:46;99279.88;;;6.70;100.00
35151;BME280;55720;51.972;4.624;2023-03-14T07:36:12;99277.13;;;6.70;100.00
35151;BME280;55720;51.972;4.624;2023-03-14T07:38:37;99279.75;;;6.66;100.00
35151;BME280;55720;51.972;4.624;2023-03-14T07:41:05;99289.09;;;6.65;100.00
35151;BME280;55720;51.972;4.624;2023-03-14T07:43:31;99247.09;;;6.54;100.00
35151;BME280;55720;51.972;4.624;2023-03-14T07:45:56;99242.06;;;6.56;100.00
35151;BME280;55720;51.972;4.624;2023-03-14T07:48:22;99280.34;;;6.60;100.00
35151;BME280;55720;51.972;4.624;2023-03-14T07:50:50;99331.47;;;6.63;100.00
35151;BME280;55720;51.972;4.624;2023-03-14T07:53:15;99359.91;;;6.62;100.00
35151;BME280;55720;51.972;4.624;2023-03-14T07:55:41;99398.88;;;6.50;100.00
35151;BME280;55720;51.972;4.624;2023-03-14T07:58:06;99405.19;;;6.18;100.00
35151;BME280;55720;51.972;4.624;2023-03-14T08:00:32;99426.81;;;6.02;100.00
35151;BME280;55720;51.972;4.624;2023-03-14T08:02:58;99432.81;;;5.96;100.00
35151;BME280;55720;51.972;4.624;2023-03-14T08:05:23;99443.06;;;5.78;100.00
35151;BME280;55720;51.972;4.624;2023-03-14T08:07:48;99443.47;;;5.68;100.00
35151;BME280;55720;51.972;4.624;2023-03-14T08:10:14;99450.09;;;5.79;100.00
35151;BME280;55720;51.972;4.624;2023-03-14T08:12:46;99444.84;;;5.74;100.00
35151;BME280;55720;51.972;4.624;2023-03-14T08:15:11;99443.38;;;5.76;100.00
35151;BME280;55720;51.972;4.624;2023-03-14T08:17:37;99453.28;;;5.81;100.00
35151;BME280;55720;51.972;4.624;2023-03-14T08:20:03;99438.06;;;5.80;100.00
35151;BME280;55720;51.972;4.624;2023-03-14T08:22:31;99438.06;;;5.80;100.00
35151;BME280;55720;51.972;4.624;2023-03-14T08:24:57;99456.06;;;5.72;100.00
35151;BME280;55720;51.972;4.624;2023-03-14T08:27:22;99447.91;;;5.72;100.00
35151;BME280;55720;51.972;4.624;2023-03-14T08:29:48;99445.13;;;5.81;100.00
35151;BME280;55720;51.972;4.624;2023-03-14T08:32:13;99428.66;;;5.77;100.00
35151;BME280;55720;51.972;4.624;2023-03-14T08:34:39;99414.47;;;5.84;100.00
35151;BME280;55720;51.972;4.624;2023-03-14T08:37:05;99394.56;;;6.04;100.00
35151;BME280;55720;51.972;4.624;2023-03-14T08:39:30;99376.53;;;6.00;100.00
35151;BME280;55720;51.972;4.624;2023-03-14T08:41:56;99349.06;;;5.72;100.00
35151;BME280;55720;51.972;4.624;2023-03-14T08:44:21;99322.81;;;5.55;100.00
35151;BME280;55720;51.972;4.624;2023-03-14T08:46:47;99302.03;;;5.51;100.00
35151;BME280;55720;51.972;4.624;2023-03-14T08:49:12;99281.88;;;5.52;100.00
35151;BME280;55720;51.972;4.624;2023-03-14T08:51:39;99253.41;;;5.61;100.00
35151;BME280;55720;51.972;4.624;2023-03-14T08:54:04;99221.31;;;5.79;100.00
35151;BME280;55720;51.972;4.624;2023-03-14T08:56:30;99173.81;;;5.88;100.00
35151;BME280;55720;51.972;4.624;2023-03-14T08:58:56;99156.19;;;5.98;100.00
35151;BME280;55720;51.972;4.624;2023-03-14T09:01:22;99156.09;;;6.47;100.00
35151;BME280;55720;51.972;4.624;2023-03-14T09:03:50;99101.97;;;6.61;100.00
35151;BME280;55720;51.972;4.624;2023-03-14T09:06:15;99055.25;;;6.62;100.00
35151;BME280;55720;51.972;4.624;2023-03-14T09:08:43;99024.56;;;6.65;100.00
35151;BME280;55720;51.972;4.624;2023-03-14T09:11:08;99000.47;;;6.83;100.00
35151;BME280;55720;51.972;4.624;2023-03-14T09:13:34;98972.75;;;6.81;100.00
35151;BME280;55720;51.972;4.624;2023-03-14T09:15:59;98944.09;;;7.06;100.00
35151;BME280;55720;51.972;4.624;2023-03-14T09:18:24;98919.56;;;7.41;100.00
35151;BME280;55720;51.972;4.624;2023-03-14T09:20:50;98905.28;;;7.67;100.00
35151;BME280;55720;51.972;4.624;2023-03-14T09:23:15;98887.56;;;7.61;100.00
35151;BME280;55720;51.972;4.624;2023-03-14T09:25:41;98877.63;;;7.14;100.00
35151;BME280;55720;51.972;4.624;2023-03-14T09:28:06;98874.84;;;7.11;100.00
35151;BME280;55720;51.972;4.624;2023-03-14T09:30:32;98879.56;;;6.79;100.00
35151;BME280;55720;51.972;4.624;2023-03-14T09:33:00;98903.88;;;6.53;100.00
35151;BME280;55720;51.972;4.624;2023-03-14T09:35:26;98908.53;;;6.52;100.00
35151;BME280;55720;51.972;4.624;2023-03-14T09:37:51;98913.66;;;6.54;100.00
35151;BME280;55720;51.972;4.624;2023-03-14T09:40:18;98930.88;;;6.58;100.00
35151;BME280;55720;51.972;4.624;2023-03-14T09:42:47;98939.22;;;6.49;100.00
35151;BME280;55720;51.972;4.624;2023-03-14T09:45:29;98966.81;;;5.76;100.00
35151;BME280;55720;51.972;4.624;2023-03-14T09:47:57;98997.28;;;5.54;100.00
35151;BME280;55720;51.972;4.624;2023-03-14T09:50:23;99019.03;;;5.66;100.00
35151;BME280;55720;51.972;4.624;2023-03-14T09:52:52;99026.47;;;5.93;100.00
35151;BME280;55720;51.972;4.624;2023-03-14T09:55:22;99045.84;;;6.04;100.00
35151;BME280;55720;51.972;4.624;2023-03-14T09:57:56;99040.84;;;6.06;100.00
35151;BME280;55720;51.972;4.624;2023-03-14T10:00:26;99033.69;;;6.57;100.00
35151;BME280;55720;51.972;4.624;2023-03-14T10:02:55;99018.28;;;7.27;100.00
35151;BME280;55720;51.972;4.624;2023-03-14T10:05:23;99023.50;;;7.17;100.00
35151;BME280;55720;51.972;4.624;2023-03-14T10:07:50;99026.34;;;7.05;100.00
35151;BME280;55720;51.972;4.624;2023-03-14T10:10:26;99042.09;;;6.96;100.00
35151;BME280;55720;51.972;4.624;2023-03-14T10:12:59;99044.03;;;6.95;100.00
35151;BME280;55720;51.972;4.624;2023-03-14T10:15:32;99047.34;;;7.35;100.00
35151;BME280;55720;51.972;4.624;2023-03-14T10:18:00;99064.19;;;7.06;100.00
35151;BME280;55720;51.972;4.624;2023-03-14T10:22:57;99120.69;;;7.06;100.00
35151;BME280;55720;51.972;4.624;2023-03-14T10:25:28;99126.00;;;7.30;100.00
35151;BME280;55720;51.972;4.624;2023-03-14T10:27:54;99143.25;;;7.81;100.00
35151;BME280;55720;51.972;4.624;2023-03-14T10:30:34;99172.41;;;7.77;100.00
35151;BME280;55720;51.972;4.624;2023-03-14T10:33:11;99216.28;;;7.53;100.00
35151;BME280;55720;51.972;4.624;2023-03-14T10:35:37;99253.94;;;7.31;100.00
35151;BME280;55720;51.972;4.624;2023-03-14T10:38:03;99283.44;;;6.98;100.00
35151;BME280;55720;51.972;4.624;2023-03-14T10:40:40;99326.34;;;6.85;100.00
35151;BME280;55720;51.972;4.624;2023-03-14T10:43:11;99380.19;;;7.01;100.00
35151;BME280;55720;51.972;4.624;2023-03-14T10:45:43;99407.56;;;7.16;100.00
35151;BME280;55720;51.972;4.624;2023-03-14T10:50:58;99484.00;;;6.68;100.00
35151;BME280;55720;51.972;4.624;2023-03-14T10:53:33;99494.00;;;6.88;100.00
35151;BME280;55720;51.972;4.624;2023-03-14T10:56:02;99501.59;;;6.94;100.00
35151;BME280;55720;51.972;4.624;2023-03-14T10:58:30;99530.38;;;7.28;100.00
35151;BME280;55720;51.972;4.624;2023-03-14T11:01:18;99575.44;;;7.10;100.00
35151;BME280;55720;51.972;4.624;2023-03-14T11:03:57;99609.56;;;7.28;100.00
35151;BME280;55720;51.972;4.624;2023-03-14T11:06:36;99634.38;;;7.23;100.00
35151;BME280;55720;51.972;4.624;2023-03-14T11:09:10;99652.56;;;7.31;100.00
35151;BME280;55720;51.972;4.624;2023-03-14T11:11:42;99667.28;;;7.75;100.00
35151;BME280;55720;51.972;4.624;2023-03-14T11:14:23;99671.44;;;8.46;100.00
35151;BME280;55720;51.972;4.624;2023-03-14T11:17:17;99714.25;;;8.54;100.00
35151;BME280;55720;51.972;4.624;2023-03-14T11:20:01;99765.00;;;8.27;100.00
35151;BME280;55720;51.972;4.624;2023-03-14T11:25:21;99815.66;;;8.00;100.00
35151;BME280;55720;51.972;4.624;2023-03-14T11:27:54;99812.16;;;8.24;100.00
35151;BME280;55720;51.972;4.624;2023-03-14T11:33:07;99859.66;;;8.19;100.00
35151;BME280;55720;51.972;4.624;2023-03-14T11:35:42;99868.81;;;8.48;100.00
35151;BME280;55720;51.972;4.624;2023-03-14T11:38:27;99897.53;;;8.29;100.00
35151;BME280;55720;51.972;4.624;2023-03-14T11:40:59;99929.72;;;8.12;100.00
35151;BME280;55720;51.972;4.624;2023-03-14T11:43:40;99948.84;;;8.12;100.00
35151;BME280;55720;51.972;4.624;2023-03-14T11:46:23;99945.19;;;8.40;100.00
35151;BME280;55720;51.972;4.624;2023-03-14T11:49:04;99969.94;;;8.44;100.00
35151;BME280;55720;51.972;4.624;2023-03-14T11:51:36;99990.31;;;8.47;100.00
35151;BME280;55720;51.972;4.624;2023-03-14T11:56:53;100027.13;;;9.30;100.00
35151;BME280;55720;51.972;4.624;2023-03-14T12:02:35;100072.22;;;9.33;100.00
35151;BME280;55720;51.972;4.624;2023-03-14T12:10:49;100188.38;;;9.20;100.00
35151;BME280;55720;51.972;4.624;2023-03-14T12:13:16;100202.38;;;9.06;100.00
35151;BME280;55720;51.972;4.624;2023-03-14T12:16:04;100235.97;;;8.82;100.00
35151;BME280;55720;51.972;4.624;2023-03-14T12:18:35;100303.25;;;8.83;100.00
35151;BME280;55720;51.972;4.624;2023-03-14T12:21:06;100294.03;;;8.88;100.00
35151;BME280;55720;51.972;4.624;2023-03-14T12:23:52;100315.47;;;9.07;100.00
35151;BME280;55720;51.972;4.624;2023-03-14T12:26:24;100308.31;;;8.94;100.00
35151;BME280;55720;51.972;4.624;2023-03-14T12:49:43;100349.88;;;8.96;100.00
35151;BME280;55720;51.972;4.624;2023-03-14T12:57:52;100358.81;;;9.25;100.00
35151;BME280;55720;51.972;4.624;2023-03-14T13:00:22;100362.16;;;9.31;100.00
35151;BME280;55720;51.972;4.624;2023-03-14T13:02:49;100366.69;;;9.06;100.00
35151;BME280;55720;51.972;4.624;2023-03-14T13:05:20;100379.25;;;9.07;100.00
35151;BME280;55720;51.972;4.624;2023-03-14T13:10:26;100382.09;;;8.90;100.00
35151;BME280;55720;51.972;4.624;2023-03-14T13:12:55;100393.41;;;9.09;100.00
35151;BME280;55720;51.972;4.624;2023-03-14T13:15:26;100392.28;;;8.89;100.00
35151;BME280;55720;51.972;4.624;2023-03-14T13:17:55;100427.44;;;8.79;100.00
35151;BME280;55720;51.972;4.624;2023-03-14T13:22:51;100441.59;;;9.10;100.00
35151;BME280;55720;51.972;4.624;2023-03-14T13:25:17;100445.00;;;9.49;100.00
35151;BME280;55720;51.972;4.624;2023-03-14T13:27:46;100457.94;;;9.19;100.00
35151;BME280;55720;51.972;4.624;2023-03-14T13:30:18;100441.94;;;9.50;100.00
35151;BME280;55720;51.972;4.624;2023-03-14T13:32:44;100450.06;;;8.97;100.00
35151;BME280;55720;51.972;4.624;2023-03-14T13:35:24;100457.53;;;8.50;100.00
35151;BME280;55720;51.972;4.624;2023-03-14T13:38:17;100485.56;;;8.12;100.00
35151;BME280;55720;51.972;4.624;2023-03-14T13:40:44;100497.16;;;8.09;100.00
35151;BME280;55720;51.972;4.624;2023-03-14T13:43:12;100510.34;;;7.90;100.00
35151;BME280;55720;51.972;4.624;2023-03-14T13:45:48;100516.13;;;7.54;100.00
35151;BME280;55720;51.972;4.624;2023-03-14T13:48:14;100518.22;;;7.57;100.00
35151;BME280;55720;51.972;4.624;2023-03-14T13:50:45;100518.56;;;7.64;100.00
35151;BME280;55720;51.972;4.624;2023-03-14T13:53:11;100530.31;;;7.99;100.00
35151;BME280;55720;51.972;4.624;2023-03-14T13:55:36;100536.25;;;7.67;100.00
35151;BME280;55720;51.972;4.624;2023-03-14T13:58:02;100538.66;;;7.77;100.00
35151;BME280;55720;51.972;4.624;2023-03-14T14:00:28;100530.13;;;7.78;100.00
35151;BME280;55720;51.972;4.624;2023-03-14T14:02:55;100541.22;;;7.82;100.00